Soleil Laural Canyon Historical Data
Daily Summary for January 12, 2018 Units:  Both    English   Metric
Daily Weekly Monthly Yearly Custom
  High: Low: Average:
Temperature: 14.2 °F /  -9.9 °C -0.5 °F /  -18.1 °C 8.6 °F /  -13 °C
Dew Point: 6.9 °F /  -13.9 °C -7.7 °F /  -22.1 °C 2.8 °F /  -16.2 °C
Humidity: 86% 64% 77%
Wind Speed: 17.1mph /  27.5km/h - 10.1mph /  16.3km/h
Wind Gust: 26.5mph /  42.6km/h - -
Wind- - West
Pressure: 30.52 in /  1033.4 hPa 30.02 in /  1016.5 hPa -
Precipitation: 0.00 in /  0 mm    
Historical Graphs
 
 
Tabular Data for January 12, 2018
Time Temperature Dew Point Pressure Wind Wind Speed Wind Gust Humidity Rainfall Rate (Hourly) solar
00:10 9.4 °F /  -12.6 °C 6.1 °F /  -14.4 °C 30.02in /  1016.5hPa NW 12.4mph /  20km/h 16.1mph /  25.9km/h 86% 0.00in /  0mm 0.0 W/m2
00:15 9.3 °F /  -12.6 °C 6.0 °F /  -14.4 °C 30.03in /  1016.8hPa NNW 9.8mph /  15.8km/h 12.7mph /  20.4km/h 86% 0.00in /  0mm 0.0 W/m2
00:23 9.1 °F /  -12.7 °C 5.8 °F /  -14.6 °C 30.03in /  1016.8hPa NW 11.6mph /  18.7km/h 15.0mph /  24.1km/h 86% 0.00in /  0mm 0.0 W/m2
00:28 9.1 °F /  -12.7 °C 5.8 °F /  -14.6 °C 30.03in /  1016.8hPa WNW 10.3mph /  16.6km/h 15.0mph /  24.1km/h 86% 0.00in /  0mm 0.0 W/m2
00:38 9.0 °F /  -12.8 °C 5.7 °F /  -14.6 °C 30.04in /  1017.2hPa WNW 12.4mph /  20km/h 12.4mph /  20km/h 86% 0.00in /  0mm 0.0 W/m2
00:51 8.9 °F /  -12.8 °C 5.6 °F /  -14.7 °C 30.04in /  1017.2hPa NW 11.1mph /  17.9km/h 12.7mph /  20.4km/h 86% 0.00in /  0mm 0.0 W/m2
00:56 8.9 °F /  -12.8 °C 5.6 °F /  -14.7 °C 30.04in /  1017.2hPa NW 11.0mph /  17.7km/h 16.8mph /  27km/h 86% 0.00in /  0mm 0.0 W/m2
01:02 8.9 °F /  -12.8 °C 5.6 °F /  -14.7 °C 30.05in /  1017.5hPa WNW 10.6mph /  17.1km/h 12.7mph /  20.4km/h 86% 0.00in /  0mm 0.0 W/m2
01:07 8.9 °F /  -12.8 °C 5.6 °F /  -14.7 °C 30.05in /  1017.5hPa WNW 10.9mph /  17.5km/h 15.6mph /  25.1km/h 86% 0.00in /  0mm 0.0 W/m2
01:16 8.9 °F /  -12.8 °C 5.6 °F /  -14.7 °C 30.06in /  1017.8hPa WNW 7.9mph /  12.7km/h 8.1mph /  13km/h 86% 0.00in /  0mm 0.0 W/m2
01:22 8.9 °F /  -12.8 °C 5.6 °F /  -14.7 °C 30.05in /  1017.5hPa WNW 10.7mph /  17.2km/h 16.1mph /  25.9km/h 86% 0.00in /  0mm 0.0 W/m2
01:28 9.0 °F /  -12.8 °C 5.7 °F /  -14.6 °C 30.06in /  1017.8hPa NW 10.0mph /  16.1km/h 10.4mph /  16.7km/h 86% 0.00in /  0mm 0.0 W/m2
01:33 9.1 °F /  -12.7 °C 5.8 °F /  -14.6 °C 30.07in /  1018.2hPa WNW 7.6mph /  12.2km/h 14.4mph /  23.2km/h 86% 0.00in /  0mm 0.0 W/m2
01:38 9.2 °F /  -12.7 °C 5.9 °F /  -14.5 °C 30.07in /  1018.2hPa WNW 11.2mph /  18km/h 16.1mph /  25.9km/h 86% 0.00in /  0mm 0.0 W/m2
01:43 9.3 °F /  -12.6 °C 6.0 °F /  -14.4 °C 30.07in /  1018.2hPa NW 12.9mph /  20.8km/h 16.1mph /  25.9km/h 86% 0.00in /  0mm 0.0 W/m2
01:58 9.7 °F /  -12.4 °C 6.4 °F /  -14.2 °C 30.08in /  1018.5hPa NNW 12.3mph /  19.8km/h 12.7mph /  20.4km/h 86% 0.00in /  0mm 0.0 W/m2
02:05 9.8 °F /  -12.3 °C 6.5 °F /  -14.2 °C 30.08in /  1018.5hPa WNW 9.5mph /  15.3km/h 10.4mph /  16.7km/h 86% 0.00in /  0mm 0.0 W/m2
02:10 9.9 °F /  -12.3 °C 6.6 °F /  -14.1 °C 30.09in /  1018.8hPa WNW 14.9mph /  24km/h 16.1mph /  25.9km/h 86% 0.00in /  0mm 0.0 W/m2
02:16 10.0 °F /  -12.2 °C 6.6 °F /  -14.1 °C 30.09in /  1018.8hPa NW 13.2mph /  21.2km/h 13.2mph /  21.2km/h 86% 0.00in /  0mm 0.0 W/m2
02:24 10.0 °F /  -12.2 °C 6.6 °F /  -14.1 °C 30.10in /  1019.2hPa NW 11.4mph /  18.3km/h 15.0mph /  24.1km/h 86% 0.00in /  0mm 0.0 W/m2
02:40 10.1 °F /  -12.2 °C 6.7 °F /  -14.1 °C 30.11in /  1019.5hPa NW 11.1mph /  17.9km/h 12.7mph /  20.4km/h 86% 0.00in /  0mm 0.0 W/m2
02:45 10.1 °F /  -12.2 °C 6.7 °F /  -14.1 °C 30.11in /  1019.5hPa NW 14.8mph /  23.8km/h 18.4mph /  29.6km/h 86% 0.00in /  0mm 0.0 W/m2
02:52 10.0 °F /  -12.2 °C 6.6 °F /  -14.1 °C 30.12in /  1019.9hPa NW 9.7mph /  15.6km/h 10.8mph /  17.4km/h 86% 0.00in /  0mm 0.0 W/m2
03:06 10.1 °F /  -12.2 °C 6.7 °F /  -14.1 °C 30.12in /  1019.9hPa NNW 9.0mph /  14.5km/h 18.4mph /  29.6km/h 86% 0.00in /  0mm 0.0 W/m2
03:11 10.1 °F /  -12.2 °C 6.7 °F /  -14.1 °C 30.12in /  1019.9hPa NNW 12.0mph /  19.3km/h 12.0mph /  19.3km/h 86% 0.00in /  0mm 0.0 W/m2
03:16 10.1 °F /  -12.2 °C 6.7 °F /  -14.1 °C 30.12in /  1019.9hPa NW 11.9mph /  19.2km/h 16.1mph /  25.9km/h 86% 0.00in /  0mm 0.0 W/m2
03:22 10.1 °F /  -12.2 °C 6.7 °F /  -14.1 °C 30.12in /  1019.9hPa NW 8.9mph /  14.3km/h 16.1mph /  25.9km/h 86% 0.00in /  0mm 0.0 W/m2
03:27 10.1 °F /  -12.2 °C 6.7 °F /  -14.1 °C 30.12in /  1019.9hPa NW 13.0mph /  20.9km/h 17.0mph /  27.4km/h 86% 0.00in /  0mm 0.0 W/m2
03:37 10.1 °F /  -12.2 °C 6.7 °F /  -14.1 °C 30.12in /  1019.9hPa WNW 10.8mph /  17.4km/h 10.8mph /  17.4km/h 86% 0.00in /  0mm 0.0 W/m2
03:46 10.1 °F /  -12.2 °C 6.7 °F /  -14.1 °C 30.13in /  1020.2hPa NW 11.6mph /  18.7km/h 16.1mph /  25.9km/h 86% 0.00in /  0mm 0.0 W/m2
03:59 10.1 °F /  -12.2 °C 6.7 °F /  -14.1 °C 30.14in /  1020.5hPa NW 12.1mph /  19.5km/h 17.3mph /  27.8km/h 86% 0.00in /  0mm 0.0 W/m2
04:04 10.2 °F /  -12.1 °C 6.8 °F /  -14 °C 30.14in /  1020.5hPa North 8.8mph /  14.2km/h 8.8mph /  14.2km/h 86% 0.00in /  0mm 0.0 W/m2
04:12 10.2 °F /  -12.1 °C 6.8 °F /  -14 °C 30.14in /  1020.5hPa WNW 11.8mph /  19km/h 19.2mph /  30.9km/h 86% 0.00in /  0mm 0.0 W/m2
04:19 10.2 °F /  -12.1 °C 6.8 °F /  -14 °C 30.14in /  1020.5hPa NW 11.6mph /  18.7km/h 12.7mph /  20.4km/h 86% 0.00in /  0mm 0.0 W/m2
04:31 10.2 °F /  -12.1 °C 6.8 °F /  -14 °C 30.15in /  1020.9hPa NNW 13.5mph /  21.7km/h 16.8mph /  27km/h 86% 0.00in /  0mm 0.0 W/m2
04:38 10.2 °F /  -12.1 °C 6.6 °F /  -14.1 °C 30.15in /  1020.9hPa NNW 11.3mph /  18.2km/h 11.3mph /  18.2km/h 85% 0.00in /  0mm 0.0 W/m2
04:43 10.3 °F /  -12.1 °C 6.9 °F /  -13.9 °C 30.16in /  1021.2hPa NW 8.0mph /  12.9km/h 10.8mph /  17.4km/h 86% 0.00in /  0mm 0.0 W/m2
04:51 10.3 °F /  -12.1 °C 6.7 °F /  -14.1 °C 30.16in /  1021.2hPa NW 11.2mph /  18km/h 16.1mph /  25.9km/h 85% 0.00in /  0mm 0.0 W/m2
05:00 10.3 °F /  -12.1 °C 6.9 °F /  -13.9 °C 30.16in /  1021.2hPa NNW 12.6mph /  20.3km/h 17.3mph /  27.8km/h 86% 0.00in /  0mm 0.0 W/m2
05:05 10.2 °F /  -12.1 °C 6.6 °F /  -14.1 °C 30.16in /  1021.2hPa NW 11.4mph /  18.3km/h 13.2mph /  21.2km/h 85% 0.00in /  0mm 0.0 W/m2
05:13 10.2 °F /  -12.1 °C 6.6 °F /  -14.1 °C 30.16in /  1021.2hPa NW 13.8mph /  22.2km/h 19.6mph /  31.5km/h 85% 0.00in /  0mm 0.0 W/m2
05:25 10.2 °F /  -12.1 °C 6.6 °F /  -14.1 °C 30.17in /  1021.6hPa North 15.4mph /  24.8km/h 20.7mph /  33.3km/h 85% 0.00in /  0mm 0.0 W/m2
05:32 10.1 °F /  -12.2 °C 6.2 °F /  -14.3 °C 30.18in /  1021.9hPa NNW 7.7mph /  12.4km/h 17.3mph /  27.8km/h 84% 0.00in /  0mm 0.0 W/m2
05:37 10.1 °F /  -12.2 °C 6.2 °F /  -14.3 °C 30.18in /  1021.9hPa NNW 7.9mph /  12.7km/h 16.1mph /  25.9km/h 84% 0.00in /  0mm 0.0 W/m2
05:45 10.1 °F /  -12.2 °C 6.5 °F /  -14.2 °C 30.18in /  1021.9hPa NW 7.8mph /  12.6km/h 8.4mph /  13.5km/h 85% 0.00in /  0mm 0.0 W/m2
05:50 9.9 °F /  -12.3 °C 6.3 °F /  -14.3 °C 30.18in /  1021.9hPa NW 11.7mph /  18.8km/h 16.1mph /  25.9km/h 85% 0.00in /  0mm 0.0 W/m2
05:56 9.8 °F /  -12.3 °C 6.2 °F /  -14.3 °C 30.18in /  1021.9hPa North 13.7mph /  22km/h 20.4mph /  32.8km/h 85% 0.00in /  0mm 0.0 W/m2
06:02 9.7 °F /  -12.4 °C 6.1 °F /  -14.4 °C 30.19in /  1022.2hPa NW 11.5mph /  18.5km/h 15.0mph /  24.1km/h 85% 0.00in /  0mm 0.0 W/m2
06:09 9.5 °F /  -12.5 °C 5.9 °F /  -14.5 °C 30.19in /  1022.2hPa NNW 14.2mph /  22.9km/h 14.2mph /  22.9km/h 85% 0.00in /  0mm 0.0 W/m2
06:19 9.3 °F /  -12.6 °C 5.4 °F /  -14.8 °C 30.19in /  1022.2hPa NNW 7.5mph /  12.1km/h 10.4mph /  16.7km/h 84% 0.00in /  0mm 0.0 W/m2
06:24 9.2 °F /  -12.7 °C 5.3 °F /  -14.8 °C 30.19in /  1022.2hPa NNW 12.6mph /  20.3km/h 18.4mph /  29.6km/h 84% 0.00in /  0mm 0.0 W/m2
06:31 8.9 °F /  -12.8 °C 5.1 °F /  -14.9 °C 30.19in /  1022.2hPa NNW 11.2mph /  18km/h 18.4mph /  29.6km/h 84% 0.00in /  0mm 0.0 W/m2
06:36 8.6 °F /  -13 °C 4.8 °F /  -15.1 °C 30.19in /  1022.2hPa NW 13.9mph /  22.4km/h 19.6mph /  31.5km/h 84% 0.00in /  0mm 0.0 W/m2
06:44 8.2 °F /  -13.2 °C 4.4 °F /  -15.3 °C 30.18in /  1021.9hPa NW 7.8mph /  12.6km/h 12.7mph /  20.4km/h 84% 0.00in /  0mm 0.0 W/m2
06:54 7.7 °F /  -13.5 °C 3.6 °F /  -15.8 °C 30.19in /  1022.2hPa NNW 10.4mph /  16.7km/h 17.3mph /  27.8km/h 83% 0.00in /  0mm 0.0 W/m2
07:00 7.4 °F /  -13.7 °C 3.3 °F /  -15.9 °C 30.19in /  1022.2hPa NNW 11.4mph /  18.3km/h 16.1mph /  25.9km/h 83% 0.00in /  0mm 0.0 W/m2
07:05 7.3 °F /  -13.7 °C 3.2 °F /  -16 °C 30.20in /  1022.6hPa NNE 10.1mph /  16.3km/h 10.1mph /  16.3km/h 83% 0.00in /  0mm 0.0 W/m2
07:12 7.2 °F /  -13.8 °C 3.1 °F /  -16.1 °C 30.20in /  1022.6hPa North 11.9mph /  19.2km/h 12.0mph /  19.3km/h 83% 0.00in /  0mm 0.0 W/m2
07:17 7.1 °F /  -13.8 °C 3.0 °F /  -16.1 °C 30.20in /  1022.6hPa NNW 12.1mph /  19.5km/h 16.1mph /  25.9km/h 83% 0.00in /  0mm 0.0 W/m2
07:23 6.9 °F /  -13.9 °C 2.8 °F /  -16.2 °C 30.21in /  1022.9hPa North 7.4mph /  11.9km/h 11.5mph /  18.5km/h 83% 0.00in /  0mm 0.0 W/m2
07:31 6.8 °F /  -14 °C 2.7 °F /  -16.3 °C 30.22in /  1023.2hPa NNW 9.3mph /  15km/h 11.5mph /  18.5km/h 83% 0.00in /  0mm 0.0 W/m2
07:40 6.7 °F /  -14.1 °C 2.6 °F /  -16.3 °C 30.23in /  1023.6hPa NW 8.5mph /  13.7km/h 10.4mph /  16.7km/h 83% 0.00in /  0mm 5.0 W/m2
07:48 6.7 °F /  -14.1 °C 2.6 °F /  -16.3 °C 30.23in /  1023.6hPa NNW 8.2mph /  13.2km/h 8.2mph /  13.2km/h 83% 0.00in /  0mm 9.0 W/m2
07:53 6.6 °F /  -14.1 °C 2.5 °F /  -16.4 °C 30.24in /  1023.9hPa North 9.2mph /  14.8km/h 9.6mph /  15.4km/h 83% 0.00in /  0mm 14.0 W/m2
07:58 6.6 °F /  -14.1 °C 2.8 °F /  -16.2 °C 30.25in /  1024.3hPa NNW 8.0mph /  12.9km/h 8.1mph /  13km/h 84% 0.00in /  0mm 23.0 W/m2
08:09 6.8 °F /  -14 °C 2.7 °F /  -16.3 °C 30.25in /  1024.3hPa NNW 13.5mph /  21.7km/h 19.6mph /  31.5km/h 83% 0.00in /  0mm 30.0 W/m2
08:15 7.0 °F /  -13.9 °C 2.9 °F /  -16.2 °C 30.25in /  1024.3hPa NW 11.9mph /  19.2km/h 15.0mph /  24.1km/h 83% 0.00in /  0mm 37.0 W/m2
08:21 7.1 °F /  -13.8 °C 3.0 °F /  -16.1 °C 30.26in /  1024.6hPa NW 17.1mph /  27.5km/h 26.5mph /  42.6km/h 83% 0.00in /  0mm 46.0 W/m2
08:30 7.2 °F /  -13.8 °C 3.1 °F /  -16.1 °C 30.27in /  1024.9hPa NNW 13.2mph /  21.2km/h 15.6mph /  25.1km/h 83% 0.00in /  0mm 58.0 W/m2
08:38 7.2 °F /  -13.8 °C 3.1 °F /  -16.1 °C 30.26in /  1024.6hPa NW 11.5mph /  18.5km/h 12.7mph /  20.4km/h 83% 0.00in /  0mm 69.0 W/m2
08:43 7.2 °F /  -13.8 °C 2.9 °F /  -16.2 °C 30.27in /  1024.9hPa NNW 10.9mph /  17.5km/h 11.5mph /  18.5km/h 82% 0.00in /  0mm 74.0 W/m2
08:48 7.2 °F /  -13.8 °C 2.9 °F /  -16.2 °C 30.27in /  1024.9hPa NW 15.3mph /  24.6km/h 19.6mph /  31.5km/h 82% 0.00in /  0mm 81.0 W/m2
08:54 7.3 °F /  -13.7 °C 3.0 °F /  -16.1 °C 30.28in /  1025.3hPa WNW 9.0mph /  14.5km/h 15.6mph /  25.1km/h 82% 0.00in /  0mm 137.0 W/m2
08:59 7.4 °F /  -13.7 °C 3.1 °F /  -16.1 °C 30.28in /  1025.3hPa NW 13.4mph /  21.6km/h 16.1mph /  25.9km/h 82% 0.00in /  0mm 151.0 W/m2
09:10 7.7 °F /  -13.5 °C 3.4 °F /  -15.9 °C 30.28in /  1025.3hPa NNW 15.2mph /  24.5km/h 18.4mph /  29.6km/h 82% 0.00in /  0mm 162.0 W/m2
09:15 7.9 °F /  -13.4 °C 3.3 °F /  -15.9 °C 30.29in /  1025.6hPa NNW 9.1mph /  14.6km/h 12.7mph /  20.4km/h 81% 0.00in /  0mm 221.0 W/m2
09:24 7.9 °F /  -13.4 °C 3.3 °F /  -15.9 °C 30.29in /  1025.6hPa NNE 10.0mph /  16.1km/h 16.1mph /  25.9km/h 81% 0.00in /  0mm 69.0 W/m2
09:29 7.9 °F /  -13.4 °C 3.3 °F /  -15.9 °C 30.29in /  1025.6hPa NW 14.1mph /  22.7km/h 15.6mph /  25.1km/h 81% 0.00in /  0mm 250.0 W/m2
09:41 8.3 °F /  -13.2 °C 3.4 °F /  -15.9 °C 30.29in /  1025.6hPa NNW 11.8mph /  19km/h 15.0mph /  24.1km/h 80% 0.00in /  0mm 309.0 W/m2
09:49 8.6 °F /  -13 °C 3.7 °F /  -15.7 °C 30.29in /  1025.6hPa NNW 10.4mph /  16.7km/h 12.0mph /  19.3km/h 80% 0.00in /  0mm 316.0 W/m2
09:54 8.9 °F /  -12.8 °C 4.0 °F /  -15.6 °C 30.29in /  1025.6hPa NNE 9.0mph /  14.5km/h 9.2mph /  14.8km/h 80% 0.00in /  0mm 327.0 W/m2
10:03 8.9 °F /  -12.8 °C 3.7 °F /  -15.7 °C 30.29in /  1025.6hPa NNW 14.1mph /  22.7km/h 16.8mph /  27km/h 79% 0.00in /  0mm 346.0 W/m2
10:08 9.2 °F /  -12.7 °C 4.0 °F /  -15.6 °C 30.29in /  1025.6hPa NW 7.8mph /  12.6km/h 8.4mph /  13.5km/h 79% 0.00in /  0mm 352.0 W/m2
10:22 9.7 °F /  -12.4 °C 4.2 °F /  -15.4 °C 30.30in /  1026hPa NNE 9.0mph /  14.5km/h 16.0mph /  25.7km/h 78% 0.00in /  0mm 376.0 W/m2
10:27 10.1 °F /  -12.2 °C 4.6 °F /  -15.2 °C 30.30in /  1026hPa North 10.0mph /  16.1km/h 15.0mph /  24.1km/h 78% 0.00in /  0mm 385.0 W/m2
10:40 10.3 °F /  -12.1 °C 4.5 °F /  -15.3 °C 30.31in /  1026.3hPa NW 13.0mph /  20.9km/h 15.0mph /  24.1km/h 77% 0.00in /  0mm 403.0 W/m2
10:52 10.6 °F /  -11.9 °C 4.5 °F /  -15.3 °C 30.30in /  1026hPa NW 9.0mph /  14.5km/h 10.4mph /  16.7km/h 76% 0.00in /  0mm 420.0 W/m2
10:58 11.0 °F /  -11.7 °C 4.9 °F /  -15.1 °C 30.30in /  1026hPa NNE 9.5mph /  15.3km/h 11.5mph /  18.5km/h 76% 0.00in /  0mm 429.0 W/m2
11:03 10.9 °F /  -11.7 °C 4.5 °F /  -15.3 °C 30.30in /  1026hPa NE 12.8mph /  20.6km/h 17.3mph /  27.8km/h 75% 0.00in /  0mm 434.0 W/m2
11:08 11.0 °F /  -11.7 °C 4.6 °F /  -15.2 °C 30.29in /  1025.6hPa NNE 9.3mph /  15km/h 11.5mph /  18.5km/h 75% 0.00in /  0mm 438.0 W/m2
11:14 11.2 °F /  -11.6 °C 4.5 °F /  -15.3 °C 30.29in /  1025.6hPa NNW 14.9mph /  24km/h 14.9mph /  24km/h 74% 0.00in /  0mm 443.0 W/m2
11:19 11.2 °F /  -11.6 °C 4.2 °F /  -15.4 °C 30.29in /  1025.6hPa North 12.0mph /  19.3km/h 18.4mph /  29.6km/h 73% 0.00in /  0mm 450.0 W/m2
11:24 11.1 °F /  -11.6 °C 4.4 °F /  -15.3 °C 30.29in /  1025.6hPa NNE 13.4mph /  21.6km/h 19.6mph /  31.5km/h 74% 0.00in /  0mm 452.0 W/m2
11:31 11.5 °F /  -11.4 °C 4.5 °F /  -15.3 °C 30.29in /  1025.6hPa North 9.5mph /  15.3km/h 12.7mph /  20.4km/h 73% 0.00in /  0mm 455.0 W/m2
11:36 12.0 °F /  -11.1 °C 5.0 °F /  -15 °C 30.29in /  1025.6hPa NNE 11.6mph /  18.7km/h 15.0mph /  24.1km/h 73% 0.00in /  0mm 461.0 W/m2
11:43 12.2 °F /  -11 °C 4.9 °F /  -15.1 °C 30.29in /  1025.6hPa NNE 12.6mph /  20.3km/h 16.1mph /  25.9km/h 72% 0.00in /  0mm 462.0 W/m2
11:50 11.9 °F /  -11.2 °C 4.3 °F /  -15.4 °C 30.29in /  1025.6hPa NNW 15.1mph /  24.3km/h 16.1mph /  25.9km/h 71% 0.00in /  0mm 466.0 W/m2
12:12 12.3 °F /  -10.9 °C 4.7 °F /  -15.2 °C 30.28in /  1025.3hPa NNW 10.5mph /  16.9km/h 17.3mph /  27.8km/h 71% 0.00in /  0mm 468.0 W/m2
12:17 12.5 °F /  -10.8 °C 5.2 °F /  -14.9 °C 30.28in /  1025.3hPa NW 10.1mph /  16.3km/h 16.1mph /  25.9km/h 72% 0.00in /  0mm 471.0 W/m2
12:31 12.5 °F /  -10.8 °C 4.6 °F /  -15.2 °C 30.28in /  1025.3hPa NE 8.8mph /  14.2km/h 15.0mph /  24.1km/h 70% 0.00in /  0mm 468.0 W/m2
12:36 12.5 °F /  -10.8 °C 4.6 °F /  -15.2 °C 30.29in /  1025.6hPa NNE 5.8mph /  9.3km/h 5.8mph /  9.3km/h 70% 0.00in /  0mm 464.0 W/m2
12:45 13.1 °F /  -10.5 °C 5.1 °F /  -14.9 °C 30.28in /  1025.3hPa NNW 9.2mph /  14.8km/h 13.2mph /  21.2km/h 70% 0.00in /  0mm 461.0 W/m2
12:56 12.6 °F /  -10.8 °C 4.0 °F /  -15.6 °C 30.29in /  1025.6hPa NNW 10.4mph /  16.7km/h 15.0mph /  24.1km/h 68% 0.00in /  0mm 452.0 W/m2
13:03 12.8 °F /  -10.7 °C 4.2 °F /  -15.4 °C 30.29in /  1025.6hPa NNE 9.3mph /  15km/h 15.0mph /  24.1km/h 68% 0.00in /  0mm 448.0 W/m2
13:09 12.8 °F /  -10.7 °C 4.2 °F /  -15.4 °C 30.29in /  1025.6hPa North 12.2mph /  19.6km/h 16.8mph /  27km/h 68% 0.00in /  0mm 445.0 W/m2
13:14 12.8 °F /  -10.7 °C 4.2 °F /  -15.4 °C 30.29in /  1025.6hPa NE 10.0mph /  16.1km/h 10.8mph /  17.4km/h 68% 0.00in /  0mm 439.0 W/m2
13:19 13.0 °F /  -10.6 °C 4.1 °F /  -15.5 °C 30.28in /  1025.3hPa NNE 13.3mph /  21.4km/h 20.7mph /  33.3km/h 67% 0.00in /  0mm 434.0 W/m2
13:28 13.5 °F /  -10.3 °C 4.9 °F /  -15.1 °C 30.28in /  1025.3hPa NNE 7.8mph /  12.6km/h 9.6mph /  15.4km/h 68% 0.00in /  0mm 424.0 W/m2
13:34 13.2 °F /  -10.4 °C 4.0 °F /  -15.6 °C 30.29in /  1025.6hPa North 10.4mph /  16.7km/h 11.5mph /  18.5km/h 66% 0.00in /  0mm 418.0 W/m2
13:39 13.5 °F /  -10.3 °C 4.6 °F /  -15.2 °C 30.29in /  1025.6hPa North 7.8mph /  12.6km/h 9.2mph /  14.8km/h 67% 0.00in /  0mm 410.0 W/m2
13:53 13.9 °F /  -10.1 °C 4.6 °F /  -15.2 °C 30.30in /  1026hPa NW 6.6mph /  10.6km/h 10.4mph /  16.7km/h 66% 0.00in /  0mm 392.0 W/m2
14:02 13.9 °F /  -10.1 °C 4.6 °F /  -15.2 °C 30.29in /  1025.6hPa NNW 10.0mph /  16.1km/h 12.7mph /  20.4km/h 66% 0.00in /  0mm 376.0 W/m2
14:08 14.2 °F /  -9.9 °C 4.9 °F /  -15.1 °C 30.29in /  1025.6hPa NNE 10.4mph /  16.7km/h 11.5mph /  18.5km/h 66% 0.00in /  0mm 366.0 W/m2
14:21 14.1 °F /  -9.9 °C 4.8 °F /  -15.1 °C 30.30in /  1026hPa NNE 9.0mph /  14.5km/h 10.8mph /  17.4km/h 66% 0.00in /  0mm 343.0 W/m2
14:32 14.0 °F /  -10 °C 4.1 °F /  -15.5 °C 30.30in /  1026hPa North 8.1mph /  13km/h 11.5mph /  18.5km/h 64% 0.00in /  0mm 318.0 W/m2
14:41 14.2 °F /  -9.9 °C 4.6 °F /  -15.2 °C 30.31in /  1026.3hPa NNE 10.5mph /  16.9km/h 10.8mph /  17.4km/h 65% 0.00in /  0mm 292.0 W/m2
14:46 14.0 °F /  -10 °C 4.4 °F /  -15.3 °C 30.31in /  1026.3hPa NE 7.0mph /  11.3km/h 10.8mph /  17.4km/h 65% 0.00in /  0mm 276.0 W/m2
14:57 14.1 °F /  -9.9 °C 4.5 °F /  -15.3 °C 30.32in /  1026.6hPa NNE 9.0mph /  14.5km/h 12.7mph /  20.4km/h 65% 0.00in /  0mm 250.0 W/m2
15:07 14.2 °F /  -9.9 °C 4.2 °F /  -15.4 °C 30.33in /  1027hPa NNW 12.0mph /  19.3km/h 12.7mph /  20.4km/h 64% 0.00in /  0mm 141.0 W/m2
15:12 14.0 °F /  -10 °C 4.1 °F /  -15.5 °C 30.33in /  1027hPa NNE 9.6mph /  15.4km/h 11.5mph /  18.5km/h 64% 0.00in /  0mm 141.0 W/m2
15:24 13.6 °F /  -10.2 °C 4.3 °F /  -15.4 °C 30.35in /  1027.7hPa North 8.6mph /  13.8km/h 9.6mph /  15.4km/h 66% 0.00in /  0mm 51.0 W/m2
15:29 13.5 °F /  -10.3 °C 3.9 °F /  -15.6 °C 30.36in /  1028hPa NNW 9.8mph /  15.8km/h 10.4mph /  16.7km/h 65% 0.00in /  0mm 70.0 W/m2
15:39 13.5 °F /  -10.3 °C 3.9 °F /  -15.6 °C 30.37in /  1028.3hPa NW 9.3mph /  15km/h 11.5mph /  18.5km/h 65% 0.00in /  0mm 49.0 W/m2
15:48 13.3 °F /  -10.4 °C 4.1 °F /  -15.5 °C 30.38in /  1028.7hPa NNW 7.5mph /  12.1km/h 10.8mph /  17.4km/h 66% 0.00in /  0mm 32.0 W/m2
15:55 13.0 °F /  -10.6 °C 3.4 °F /  -15.9 °C 30.38in /  1028.7hPa NNW 6.3mph /  10.1km/h 12.7mph /  20.4km/h 65% 0.00in /  0mm 39.0 W/m2
16:06 12.6 °F /  -10.8 °C 3.1 °F /  -16.1 °C 30.39in /  1029hPa North 11.2mph /  18km/h 11.5mph /  18.5km/h 65% 0.00in /  0mm 19.0 W/m2
16:19 12.1 °F /  -11.1 °C 3.2 °F /  -16 °C 30.40in /  1029.3hPa NW 6.6mph /  10.6km/h 8.1mph /  13km/h 67% 0.00in /  0mm 16.0 W/m2
16:24 11.9 °F /  -11.2 °C 3.0 °F /  -16.1 °C 30.40in /  1029.3hPa North 9.5mph /  15.3km/h 9.5mph /  15.3km/h 67% 0.00in /  0mm 14.0 W/m2
16:29 11.9 °F /  -11.2 °C 3.0 °F /  -16.1 °C 30.41in /  1029.7hPa NNW 6.1mph /  9.8km/h 9.2mph /  14.8km/h 67% 0.00in /  0mm 11.0 W/m2
16:46 11.3 °F /  -11.5 °C 2.8 °F /  -16.2 °C 30.41in /  1029.7hPa NNW 4.9mph /  7.9km/h 6.0mph /  9.7km/h 68% 0.00in /  0mm 0.0 W/m2
16:51 11.1 °F /  -11.6 °C 2.6 °F /  -16.3 °C 30.41in /  1029.7hPa North 4.2mph /  6.8km/h 4.6mph /  7.4km/h 68% 0.00in /  0mm 0.0 W/m2
17:02 10.8 °F /  -11.8 °C 2.6 °F /  -16.3 °C 30.42in /  1030hPa NW 6.6mph /  10.6km/h 7.2mph /  11.6km/h 69% 0.00in /  0mm 0.0 W/m2
17:10 10.6 °F /  -11.9 °C 2.4 °F /  -16.4 °C 30.43in /  1030.4hPa NNW 6.5mph /  10.5km/h 6.9mph /  11.1km/h 69% 0.00in /  0mm 0.0 W/m2
17:17 10.4 °F /  -12 °C 2.2 °F /  -16.6 °C 30.43in /  1030.4hPa NNW 6.6mph /  10.6km/h 9.2mph /  14.8km/h 69% 0.00in /  0mm 0.0 W/m2
17:22 10.3 °F /  -12.1 °C 2.4 °F /  -16.4 °C 30.43in /  1030.4hPa NW 7.3mph /  11.7km/h 8.1mph /  13km/h 70% 0.00in /  0mm 0.0 W/m2
17:30 10.0 °F /  -12.2 °C 2.5 °F /  -16.4 °C 30.43in /  1030.4hPa NNW 5.6mph /  9km/h 7.2mph /  11.6km/h 71% 0.00in /  0mm 0.0 W/m2
17:37 9.8 °F /  -12.3 °C 2.6 °F /  -16.3 °C 30.44in /  1030.7hPa North 5.6mph /  9km/h 8.4mph /  13.5km/h 72% 0.00in /  0mm 0.0 W/m2
17:44 9.6 °F /  -12.4 °C 2.4 °F /  -16.4 °C 30.45in /  1031hPa NW 6.8mph /  10.9km/h 9.2mph /  14.8km/h 72% 0.00in /  0mm 0.0 W/m2
17:49 9.4 °F /  -12.6 °C 2.5 °F /  -16.4 °C 30.45in /  1031hPa NNW 8.4mph /  13.5km/h 8.4mph /  13.5km/h 73% 0.00in /  0mm 0.0 W/m2
17:55 9.2 °F /  -12.7 °C 2.3 °F /  -16.5 °C 30.45in /  1031hPa NW 6.6mph /  10.6km/h 8.4mph /  13.5km/h 73% 0.00in /  0mm 0.0 W/m2
18:04 9.0 °F /  -12.8 °C 2.1 °F /  -16.6 °C 30.46in /  1031.4hPa NW 8.8mph /  14.2km/h 12.7mph /  20.4km/h 73% 0.00in /  0mm 0.0 W/m2
18:09 8.9 °F /  -12.8 °C 2.0 °F /  -16.7 °C 30.46in /  1031.4hPa NNW 12.5mph /  20.1km/h 12.5mph /  20.1km/h 73% 0.00in /  0mm 0.0 W/m2
18:19 8.7 °F /  -12.9 °C 1.8 °F /  -16.8 °C 30.47in /  1031.7hPa NE 7.4mph /  11.9km/h 10.4mph /  16.7km/h 73% 0.00in /  0mm 0.0 W/m2
18:25 8.4 °F /  -13.1 °C 1.8 °F /  -16.8 °C 30.47in /  1031.7hPa NW 10.7mph /  17.2km/h 12.7mph /  20.4km/h 74% 0.00in /  0mm 0.0 W/m2
18:33 7.8 °F /  -13.4 °C 1.5 °F /  -16.9 °C 30.47in /  1031.7hPa NW 9.3mph /  15km/h 10.4mph /  16.7km/h 75% 0.00in /  0mm 0.0 W/m2
18:51 6.5 °F /  -14.2 °C 0.5 °F /  -17.5 °C 30.47in /  1031.7hPa NNW 7.6mph /  12.2km/h 16.1mph /  25.9km/h 76% 0.00in /  0mm 0.0 W/m2
19:00 5.9 °F /  -14.5 °C 0.2 °F /  -17.7 °C 30.47in /  1031.7hPa NW 8.3mph /  13.4km/h 10.4mph /  16.7km/h 77% 0.00in /  0mm 0.0 W/m2
19:06 5.7 °F /  -14.6 °C 0.0 °F /  -17.8 °C 30.48in /  1032.1hPa NW 10.5mph /  16.9km/h 15.0mph /  24.1km/h 77% 0.00in /  0mm 0.0 W/m2
19:12 5.5 °F /  -14.7 °C -0.1 °F /  -17.8 °C 30.47in /  1031.7hPa NNW 7.2mph /  11.6km/h 8.4mph /  13.5km/h 77% 0.00in /  0mm 0.0 W/m2
19:27 4.9 °F /  -15.1 °C -0.7 °F /  -18.2 °C 30.48in /  1032.1hPa NNW 7.7mph /  12.4km/h 7.7mph /  12.4km/h 77% 0.00in /  0mm 0.0 W/m2
19:33 4.7 °F /  -15.2 °C -0.9 °F /  -18.3 °C 30.48in /  1032.1hPa NNW 8.7mph /  14km/h 16.1mph /  25.9km/h 77% 0.00in /  0mm 0.0 W/m2
19:38 4.5 °F /  -15.3 °C -1.4 °F /  -18.6 °C 30.48in /  1032.1hPa NW 12.5mph /  20.1km/h 18.4mph /  29.6km/h 76% 0.00in /  0mm 0.0 W/m2
19:43 4.3 °F /  -15.4 °C -1.6 °F /  -18.7 °C 30.48in /  1032.1hPa NW 10.6mph /  17.1km/h 17.3mph /  27.8km/h 76% 0.00in /  0mm 0.0 W/m2
19:48 4.1 °F /  -15.5 °C -1.8 °F /  -18.8 °C 30.48in /  1032.1hPa NW 12.2mph /  19.6km/h 14.4mph /  23.2km/h 76% 0.00in /  0mm 0.0 W/m2
19:55 3.9 °F /  -15.6 °C -1.7 °F /  -18.7 °C 30.49in /  1032.4hPa NW 8.1mph /  13km/h 12.0mph /  19.3km/h 77% 0.00in /  0mm 0.0 W/m2
20:03 3.7 °F /  -15.7 °C -2.2 °F /  -19 °C 30.49in /  1032.4hPa North 8.2mph /  13.2km/h 9.2mph /  14.8km/h 76% 0.00in /  0mm 0.0 W/m2
20:08 3.5 °F /  -15.8 °C -2.4 °F /  -19.1 °C 30.49in /  1032.4hPa NW 9.8mph /  15.8km/h 10.8mph /  17.4km/h 76% 0.00in /  0mm 0.0 W/m2
20:13 3.3 °F /  -15.9 °C -2.8 °F /  -19.3 °C 30.49in /  1032.4hPa WNW 8.8mph /  14.2km/h 16.1mph /  25.9km/h 75% 0.00in /  0mm 0.0 W/m2
20:26 3.1 °F /  -16.1 °C -2.8 °F /  -19.3 °C 30.49in /  1032.4hPa WNW 6.6mph /  10.6km/h 8.4mph /  13.5km/h 76% 0.00in /  0mm 0.0 W/m2
20:32 3.0 °F /  -16.1 °C -2.9 °F /  -19.4 °C 30.49in /  1032.4hPa NW 10.0mph /  16.1km/h 15.0mph /  24.1km/h 76% 0.00in /  0mm 0.0 W/m2
20:37 2.9 °F /  -16.2 °C -3.2 °F /  -19.6 °C 30.50in /  1032.7hPa NW 9.0mph /  14.5km/h 16.0mph /  25.7km/h 75% 0.00in /  0mm 0.0 W/m2
20:44 2.7 °F /  -16.3 °C -3.4 °F /  -19.7 °C 30.49in /  1032.4hPa NW 11.5mph /  18.5km/h 12.7mph /  20.4km/h 75% 0.00in /  0mm 0.0 W/m2
20:49 2.7 °F /  -16.3 °C -3.4 °F /  -19.7 °C 30.49in /  1032.4hPa West 10.4mph /  16.7km/h 13.2mph /  21.2km/h 75% 0.00in /  0mm 0.0 W/m2
20:57 2.5 °F /  -16.4 °C -3.6 °F /  -19.8 °C 30.50in /  1032.7hPa NW 10.4mph /  16.7km/h 11.5mph /  18.5km/h 75% 0.00in /  0mm 0.0 W/m2
21:04 2.4 °F /  -16.4 °C -4.0 °F /  -20 °C 30.49in /  1032.4hPa WNW 9.2mph /  14.8km/h 9.2mph /  14.8km/h 74% 0.00in /  0mm 0.0 W/m2
21:10 2.2 °F /  -16.6 °C -4.2 °F /  -20.1 °C 30.50in /  1032.7hPa NNW 12.4mph /  20km/h 16.1mph /  25.9km/h 74% 0.00in /  0mm 0.0 W/m2
21:17 2.0 °F /  -16.7 °C -4.7 °F /  -20.4 °C 30.50in /  1032.7hPa NNW 9.4mph /  15.1km/h 15.0mph /  24.1km/h 73% 0.00in /  0mm 0.0 W/m2
21:29 1.8 °F /  -16.8 °C -4.6 °F /  -20.3 °C 30.50in /  1032.7hPa NW 8.3mph /  13.4km/h 8.3mph /  13.4km/h 74% 0.00in /  0mm 0.0 W/m2
21:37 1.6 °F /  -16.9 °C -4.8 °F /  -20.4 °C 30.50in /  1032.7hPa NNW 10.1mph /  16.3km/h 17.3mph /  27.8km/h 74% 0.00in /  0mm 0.0 W/m2
21:43 1.5 °F /  -16.9 °C -5.2 °F /  -20.7 °C 30.50in /  1032.7hPa NW 9.6mph /  15.4km/h 10.4mph /  16.7km/h 73% 0.00in /  0mm 0.0 W/m2
21:51 1.3 °F /  -17.1 °C -5.3 °F /  -20.7 °C 30.51in /  1033.1hPa NW 8.6mph /  13.8km/h 8.6mph /  13.8km/h 73% 0.00in /  0mm 0.0 W/m2
21:59 1.1 °F /  -17.2 °C -5.5 °F /  -20.8 °C 30.51in /  1033.1hPa NW 8.3mph /  13.4km/h 10.4mph /  16.7km/h 73% 0.00in /  0mm 0.0 W/m2
22:30 0.6 °F /  -17.4 °C -6.3 °F /  -21.3 °C 30.50in /  1032.7hPa WNW 7.0mph /  11.3km/h 15.0mph /  24.1km/h 72% 0.00in /  0mm 0.0 W/m2
22:46 0.4 °F /  -17.6 °C -6.8 °F /  -21.6 °C 30.50in /  1032.7hPa NW 8.1mph /  13km/h 11.5mph /  18.5km/h 71% 0.00in /  0mm 0.0 W/m2
22:51 0.4 °F /  -17.6 °C -6.8 °F /  -21.6 °C 30.51in /  1033.1hPa NW 10.5mph /  16.9km/h 12.7mph /  20.4km/h 71% 0.00in /  0mm 0.0 W/m2
23:00 0.1 °F /  -17.7 °C -7.1 °F /  -21.7 °C 30.51in /  1033.1hPa North 7.3mph /  11.7km/h 7.3mph /  11.7km/h 71% 0.00in /  0mm 0.0 W/m2
23:06 0.1 °F /  -17.7 °C -7.1 °F /  -21.7 °C 30.51in /  1033.1hPa NW 4.4mph /  7.1km/h 10.4mph /  16.7km/h 71% 0.00in /  0mm 0.0 W/m2
23:13 0.1 °F /  -17.7 °C -7.1 °F /  -21.7 °C 30.51in /  1033.1hPa NW 8.3mph /  13.4km/h 10.8mph /  17.4km/h 71% 0.00in /  0mm 0.0 W/m2
23:22 0.0 °F /  -17.8 °C -7.2 °F /  -21.8 °C 30.51in /  1033.1hPa NNW 9.0mph /  14.5km/h 15.0mph /  24.1km/h 71% 0.00in /  0mm 0.0 W/m2
23:38 -0.2 °F /  -17.9 °C -7.4 °F /  -21.9 °C 30.51in /  1033.1hPa NNW 8.3mph /  13.4km/h 11.5mph /  18.5km/h 71% 0.00in /  0mm 0.0 W/m2
23:43 -0.3 °F /  -17.9 °C -7.5 °F /  -21.9 °C 30.52in /  1033.4hPa NW 6.9mph /  11.1km/h 8.1mph /  13km/h 71% 0.00in /  0mm 0.0 W/m2
23:58 -0.5 °F /  -18.1 °C -7.7 °F /  -22.1 °C 30.51in /  1033.1hPa WNW 6.8mph /  10.9km/h 9.6mph /  15.4km/h 71% 0.00in /  0mm 0.0 W/m2
Soleil - Laurel Canyon
Compliments of Weather Underground - 2.5 mb